createdAt,value
2019-06-20T00:04:47.824Z,62.17
2019-06-20T00:09:43.611Z,63.76
2019-06-20T00:14:39.387Z,61.76
2019-06-20T00:19:35.232Z,61.34
2019-06-20T00:24:31.158Z,62.38
2019-06-20T00:29:27.265Z,64.15
2019-06-20T00:34:23.012Z,65.45
2019-06-20T00:39:18.805Z,65.37
2019-06-20T00:44:14.513Z,67.69
2019-06-20T00:49:10.285Z,68.74
2019-06-20T00:54:06.273Z,68.42
2019-06-20T00:59:02.340Z,69.24
2019-06-20T01:03:58.214Z,69.80
2019-06-20T01:08:54.068Z,71.02
2019-06-20T01:13:52.730Z,71.07
2019-06-20T01:18:47.372Z,71.61
2019-06-20T01:23:43.131Z,73.98
2019-06-20T01:28:38.858Z,73.54
2019-06-20T01:33:34.706Z,73.91
2019-06-20T01:38:30.598Z,72.59
2019-06-20T01:43:26.364Z,72.12
2019-06-20T01:48:22.248Z,72.93
2019-06-20T01:53:19.304Z,71.49
2019-06-20T01:58:15.056Z,70.86
2019-06-20T02:03:10.774Z,72.86
2019-06-20T02:08:07.685Z,72.63
2019-06-20T02:13:03.682Z,71.17
2019-06-20T02:17:59.542Z,71.97
2019-06-20T02:22:55.353Z,71.23
2019-06-20T02:27:51.223Z,72.45
2019-06-20T02:32:47.152Z,71.90
2019-06-20T02:37:43.158Z,72.27
2019-06-20T02:42:38.880Z,71.45
2019-06-20T02:47:34.653Z,73.34
2019-06-20T02:52:30.758Z,74.22
2019-06-20T02:57:26.601Z,74.85
2019-06-20T03:02:22.366Z,75.83
2019-06-20T03:07:18.142Z,74.69
2019-06-20T03:12:13.969Z,75.62
2019-06-20T03:17:09.761Z,74.95
2019-06-20T03:22:05.493Z,75.05
2019-06-20T03:27:01.248Z,75.62
2019-06-20T03:31:57.053Z,78.00
2019-06-20T03:36:52.880Z,76.80
2019-06-20T03:41:48.679Z,77.73
2019-06-20T03:46:44.513Z,76.92
2019-06-20T03:51:40.315Z,77.80
2019-06-20T03:56:36.124Z,76.70
2019-06-20T04:01:32.464Z,78.34
2019-06-20T04:06:28.224Z,78.16
2019-06-20T04:11:23.980Z,78.52
2019-06-20T04:16:20.750Z,78.44
2019-06-20T04:21:16.649Z,78.32
2019-06-20T04:26:12.480Z,78.64
2019-06-20T04:31:08.207Z,80.08
2019-06-20T04:36:04.011Z,79.19
2019-06-20T04:41:00.106Z,78.40
2019-06-20T04:46:04.433Z,79.36
2019-06-20T04:51:00.149Z,79.40
2019-06-20T04:55:55.920Z,79.69
2019-06-20T05:00:51.852Z,81.19
2019-06-20T05:05:47.824Z,80.69
2019-06-20T05:10:43.923Z,82.14
2019-06-20T05:15:51.952Z,79.24
2019-06-20T05:20:38.756Z,78.15
2019-06-20T05:25:34.963Z,76.71
2019-06-20T05:30:31.529Z,73.92
2019-06-20T05:35:27.317Z,74.87
2019-06-20T05:40:23.253Z,69.22
2019-06-20T05:45:19.473Z,68.54
2019-06-20T05:50:16.634Z,66.35
2019-06-20T05:55:12.672Z,68.86
2019-06-20T06:00:15.489Z,71.11
2019-06-20T06:05:11.407Z,71.72
2019-06-20T06:10:08.849Z,74.73
2019-06-20T06:15:04.777Z,72.98
2019-06-20T06:20:00.566Z,70.67
2019-06-20T06:24:56.662Z,70.99
2019-06-20T06:29:53.439Z,71.85
2019-06-20T06:34:50.641Z,70.81
2019-06-20T06:39:46.943Z,68.92
2019-06-20T06:44:43.206Z,71.23
2019-06-20T06:49:38.956Z,68.14
2019-06-20T06:54:34.917Z,67.18
2019-06-20T06:59:30.780Z,67.03
2019-06-20T07:04:26.560Z,68.43
2019-06-20T07:09:22.425Z,67.27
2019-06-20T07:14:18.234Z,67.32
2019-06-20T07:19:14.115Z,70.16
2019-06-20T07:24:09.885Z,69.16
2019-06-20T07:34:07.961Z,68.75
2019-06-20T07:39:15.416Z,68.26
2019-06-20T07:44:27.636Z,65.07
2019-06-20T07:49:23.487Z,64.37
2019-06-20T07:54:21.665Z,61.54
2019-06-20T07:59:21.786Z,62.19
2019-06-20T08:04:20.852Z,59.02
2019-06-20T08:09:17.212Z,60.81
2019-06-20T08:14:28.484Z,57.83
2019-06-20T08:19:24.374Z,64.02
2019-06-20T08:24:20.327Z,63.61
2019-06-20T08:29:21.130Z,64.13
2019-06-20T08:34:14.100Z,64.62
2019-06-20T08:45:39.259Z,67.48
2019-06-20T08:50:46.575Z,66.91
2019-06-20T08:56:10.710Z,65.83
2019-06-20T09:06:32.912Z,63.29
2019-06-20T09:11:28.784Z,64.66
2019-06-20T09:16:24.890Z,65.79
2019-06-20T09:40:39.847Z,66.58
2019-06-20T09:45:44.886Z,69.55
2019-06-20T09:50:54.503Z,68.53
2019-06-20T09:55:54.188Z,64.63
2019-06-20T10:00:55.025Z,67.43
2019-06-20T10:05:56.694Z,66.17
2019-06-20T10:10:56.724Z,68.77
2019-06-20T10:15:53.653Z,69.26
2019-06-20T10:21:11.352Z,71.66
2019-06-20T10:26:31.678Z,68.39
2019-06-20T10:31:32.127Z,71.53
2019-06-20T10:36:44.820Z,72.69
2019-06-20T10:41:40.234Z,74.67
2019-06-20T10:46:58.594Z,76.11
2019-06-20T10:51:59.393Z,76.07
2019-06-20T10:56:57.478Z,76.87
2019-06-20T11:02:02.127Z,76.06
2019-06-20T11:07:01.440Z,77.91
2019-06-20T11:11:57.268Z,77.30
2019-06-20T11:16:53.309Z,78.04
2019-06-20T11:21:59.776Z,77.25
2019-06-20T11:26:53.720Z,75.49
2019-06-20T11:31:50.591Z,76.89
2019-06-20T11:37:06.907Z,78.61
2019-06-20T11:42:12.669Z,79.42
2019-06-20T11:47:13.436Z,80.61
2019-06-20T11:52:14.333Z,81.88
2019-06-20T11:58:34.181Z,82.14
2019-06-20T12:10:25.021Z,82.12
2019-06-20T12:15:22.678Z,80.68
2019-06-20T12:20:20.788Z,83.44
2019-06-20T12:25:19.602Z,81.76
2019-06-20T12:30:18.152Z,81.07
2019-06-20T12:35:15.244Z,83.76
2019-06-20T12:40:12.090Z,83.28
2019-06-20T12:45:08.371Z,81.37
2019-06-20T12:50:04.453Z,79.61
2019-06-20T12:55:00.548Z,80.45
2019-06-20T13:00:01.667Z,79.21
2019-06-20T13:04:57.436Z,77.67
2019-06-20T13:09:53.254Z,79.59
2019-06-20T13:14:49.606Z,80.02
2019-06-20T13:19:46.509Z,78.85
2019-06-20T13:24:42.760Z,80.26
2019-06-20T13:29:39.163Z,72.76
2019-06-20T13:34:35.434Z,75.36
2019-06-20T13:39:31.420Z,71.82
2019-06-20T13:44:27.324Z,71.13
2019-06-20T13:49:24.537Z,73.19
2019-06-20T13:54:21.678Z,73.06
2019-06-20T13:59:22.809Z,70.83
2019-06-20T14:04:18.771Z,71.12
2019-06-20T14:09:16.846Z,72.76
2019-06-20T14:14:13.924Z,73.02
2019-06-20T14:19:09.988Z,69.93
2019-06-20T14:24:06.532Z,67.46
2019-06-20T14:29:02.630Z,67.98
2019-06-20T14:34:00.351Z,70.10
2019-06-20T14:38:57.977Z,70.60
2019-06-20T14:43:58.346Z,72.49
2019-06-20T14:48:56.940Z,72.80
2019-06-20T14:53:58.070Z,71.05
2019-06-20T14:58:55.432Z,71.47
2019-06-20T15:03:51.744Z,71.46
2019-06-20T15:08:51.017Z,69.85
2019-06-20T15:13:47.681Z,69.66
2019-06-20T15:18:50.147Z,70.87
2019-06-20T15:23:49.546Z,68.99
2019-06-20T15:28:46.236Z,71.89
2019-06-20T15:33:43.567Z,72.28
2019-06-20T15:38:39.583Z,72.42
2019-06-20T15:43:43.046Z,72.18
2019-06-20T15:48:40.928Z,73.84
2019-06-20T15:53:37.715Z,75.13
2019-06-20T15:58:35.719Z,70.37
2019-06-20T16:03:32.874Z,74.19
2019-06-20T16:08:58.809Z,75.41
2019-06-20T16:14:00.932Z,74.06
2019-06-20T16:19:08.121Z,74.43
2019-06-20T16:24:12.644Z,76.07
2019-06-20T16:29:10.721Z,77.22
2019-06-20T16:34:45.947Z,74.65
2019-06-20T16:39:43.385Z,72.63
2019-06-20T16:44:50.154Z,76.16
2019-06-20T16:50:00.707Z,76.47
2019-06-20T16:55:20.022Z,74.16
2019-06-20T17:00:18.387Z,75.63
2019-06-20T17:05:18.034Z,75.75
2019-06-20T17:10:15.772Z,75.34
2019-06-20T17:15:13.305Z,78.28
2019-06-20T17:20:11.294Z,78.90
2019-06-20T17:25:12.565Z,80.96
2019-06-20T17:37:02.982Z,87.37
2019-06-20T17:42:30.483Z,88.38
2019-06-20T17:47:28.219Z,89.55
2019-06-20T17:58:36.569Z,86.21
2019-06-20T18:03:39.634Z,82.79
2019-06-20T18:08:42.442Z,84.08
2019-06-20T18:13:46.647Z,85.55
2019-06-20T18:19:08.601Z,85.38
2019-06-20T18:24:23.889Z,87.92
2019-06-20T18:29:24.062Z,87.99
2019-06-20T18:34:30.483Z,88.83
2019-06-20T18:40:13.038Z,89.65
2019-06-20T18:45:11.006Z,89.13
2019-06-20T18:50:08.151Z,89.62
2019-06-20T18:55:04.880Z,89.35
2019-06-20T19:12:24.515Z,88.09
2019-06-20T19:17:20.333Z,88.39
2019-06-20T19:22:17.834Z,86.92
2019-06-20T19:27:13.767Z,87.70
2019-06-20T19:32:09.760Z,86.63
2019-06-20T19:37:05.683Z,86.44
2019-06-20T19:42:08.195Z,85.41
2019-06-20T19:47:21.047Z,85.31
2019-06-20T19:52:21.283Z,86.52
2019-06-20T19:57:14.395Z,86.12
2019-06-20T20:02:10.830Z,85.79
2019-06-20T20:07:07.366Z,85.67
2019-06-20T20:12:05.241Z,85.50
2019-06-20T20:17:01.392Z,84.99
2019-06-20T20:21:57.322Z,85.45
2019-06-20T20:26:53.299Z,84.10
2019-06-20T20:31:49.724Z,84.64
2019-06-20T20:36:46.205Z,83.86
2019-06-20T20:41:45.961Z,83.72
2019-06-20T20:46:43.561Z,82.61
2019-06-20T20:51:48.873Z,81.21
2019-06-20T20:56:44.889Z,84.20
2019-06-20T21:01:41.216Z,84.93
2019-06-20T21:06:40.553Z,83.49
2019-06-20T21:11:36.845Z,84.67
2019-06-20T21:16:34.156Z,83.23
2019-06-20T21:21:33.957Z,83.45
2019-06-20T21:26:48.352Z,82.95
2019-06-20T21:31:35.212Z,83.25
2019-06-20T21:36:49.950Z,84.26
2019-06-20T21:41:50.334Z,83.48
2019-06-20T21:46:54.207Z,83.39
2019-06-20T21:51:55.744Z,83.33
2019-06-20T21:57:02.919Z,84.56
2019-06-20T22:01:59.425Z,85.69
2019-06-20T22:07:25.164Z,84.98
2019-06-20T22:12:51.772Z,85.00
2019-06-20T22:17:47.946Z,85.05
2019-06-20T22:23:01.206Z,84.90
2019-06-20T22:28:09.155Z,84.61
2019-06-20T22:33:06.192Z,87.82
2019-06-20T22:38:04.721Z,87.52
2019-06-20T22:43:08.545Z,87.01
2019-06-20T22:48:03.872Z,86.94
2019-06-20T22:53:08.744Z,87.04
2019-06-20T22:58:05.145Z,86.66
2019-06-20T23:03:04.778Z,87.74
2019-06-20T23:08:01.747Z,87.68
2019-06-20T23:13:01.414Z,88.26
2019-06-20T23:18:02.281Z,88.69
2019-06-20T23:23:01.252Z,88.80
2019-06-20T23:28:00.188Z,88.99
2019-06-20T23:32:58.838Z,88.05
2019-06-20T23:37:56.234Z,89.87
2019-06-20T23:42:52.665Z,88.77
2019-06-20T23:47:50.559Z,87.86
2019-06-20T23:53:00.198Z,88.80
2019-06-20T23:57:56.199Z,87.22
